TVS1025 LKPR-HEGN
Flight info
| Callsign | TVS1025 |
|---|---|
| Flight time | N/A |
| Altitude | 35000 |
| Route | VOZ DCT PISAM DCT KOVEL DCT NIDLO DCT OSLUD DCT POD DCT RETRA DCT DIMIS UL604 SALUN N705 MMA P751 DASUM Y234 FYM M872 BOPOB BOPOB1A |
| Aircraft | A320/M-SDE2E3FGIJ1RWXYZ/LB1 |
Departure
| Time | 2026-05-06 09:04 |
|---|---|
| Airport | Václav Havel Airport Prague (LKPR) |
Arrival
| Time | N/A |
|---|---|
| Airport | Hurghada International Airport (HEGN) |
| Time | Latitude | Longitude | Altitude | Speed | Heading |
|---|---|---|---|---|---|
| 2026-05-06 08:23 | 50.11028 | 14.26777 | 1174 ft | 0 kts | 65° |
| 2026-05-06 08:50 | 50.11027 | 14.26772 | 1174 ft | 3 kts | 65° |
| 2026-05-06 08:51 | 50.11015 | 14.26735 | 1170 ft | 4 kts | 58° |
| 2026-05-06 08:51 | 50.11002 | 14.26710 | 1170 ft | 4 kts | 354° |
| 2026-05-06 08:51 | 50.10999 | 14.26709 | 1170 ft | 4 kts | 328° |
| 2026-05-06 08:51 | 50.11022 | 14.26686 | 1171 ft | 4 kts | 328° |
| 2026-05-06 08:52 | 50.11037 | 14.26671 | 1173 ft | 0 kts | 327° |
| 2026-05-06 08:55 | 50.11062 | 14.26642 | 1173 ft | 10 kts | 315° |
| 2026-05-06 08:56 | 50.11059 | 14.26535 | 1171 ft | 12 kts | 228° |
| 2026-05-06 08:56 | 50.10989 | 14.26455 | 1171 ft | 13 kts | 215° |
| 2026-05-06 08:56 | 50.10904 | 14.26361 | 1174 ft | 18 kts | 216° |
| 2026-05-06 08:56 | 50.10799 | 14.26251 | 1171 ft | 18 kts | 213° |
| 2026-05-06 08:57 | 50.10699 | 14.26146 | 1171 ft | 17 kts | 214° |
| 2026-05-06 08:57 | 50.10604 | 14.26048 | 1173 ft | 16 kts | 212° |
| 2026-05-06 08:57 | 50.10507 | 14.25985 | 1175 ft | 14 kts | 167° |
| 2026-05-06 08:57 | 50.10445 | 14.26091 | 1176 ft | 12 kts | 126° |
| 2026-05-06 08:58 | 50.10397 | 14.26191 | 1176 ft | 13 kts | 128° |
| 2026-05-06 08:58 | 50.10312 | 14.26364 | 1175 ft | 26 kts | 127° |
| 2026-05-06 08:58 | 50.10200 | 14.26598 | 1175 ft | 27 kts | 127° |
| 2026-05-06 08:58 | 50.10090 | 14.26825 | 1186 ft | 24 kts | 127° |
| 2026-05-06 08:59 | 50.10001 | 14.27010 | 1196 ft | 19 kts | 127° |
| 2026-05-06 08:59 | 50.09924 | 14.27171 | 1200 ft | 20 kts | 126° |
| 2026-05-06 08:59 | 50.09840 | 14.27332 | 1203 ft | 18 kts | 135° |
| 2026-05-06 08:59 | 50.09759 | 14.27458 | 1205 ft | 16 kts | 136° |
| 2026-05-06 09:00 | 50.09666 | 14.27599 | 1207 ft | 21 kts | 135° |
| 2026-05-06 09:00 | 50.09552 | 14.27775 | 1211 ft | 24 kts | 136° |
| 2026-05-06 09:00 | 50.09440 | 14.27948 | 1215 ft | 22 kts | 135° |
| 2026-05-06 09:00 | 50.09327 | 14.28118 | 1215 ft | 23 kts | 136° |
| 2026-05-06 09:01 | 50.09256 | 14.28229 | 1213 ft | 9 kts | 136° |
| 2026-05-06 09:01 | 50.09206 | 14.28280 | 1211 ft | 8 kts | 158° |
| 2026-05-06 09:01 | 50.09154 | 14.28274 | 1211 ft | 7 kts | 209° |
| 2026-05-06 09:01 | 50.09142 | 14.28260 | 1211 ft | 0 kts | 218° |
| 2026-05-06 09:02 | 50.09141 | 14.28259 | 1211 ft | 2 kts | 218° |
| 2026-05-06 09:02 | 50.09094 | 14.28203 | 1210 ft | 13 kts | 218° |
| 2026-05-06 09:03 | 50.09082 | 14.28090 | 1208 ft | 0 kts | 305° |
| 2026-05-06 09:03 | 50.09083 | 14.28088 | 1208 ft | 2 kts | 305° |
| 2026-05-06 09:03 | 50.09189 | 14.27867 | 1211 ft | 58 kts | 307° |
| 2026-05-06 09:03 | 50.09562 | 14.27096 | 1207 ft | 118 kts | 307° |
| 2026-05-06 09:04 | 50.10145 | 14.25877 | 1193 ft | 165 kts | 304° |
| 2026-05-06 09:04 | 50.10828 | 14.24436 | 1741 ft | 162 kts | 302° |
| 2026-05-06 09:04 | 50.11524 | 14.23041 | 2384 ft | 164 kts | 303° |
| 2026-05-06 09:04 | 50.12222 | 14.21629 | 2971 ft | 167 kts | 301° |
| 2026-05-06 09:05 | 50.12968 | 14.20075 | 3216 ft | 192 kts | 302° |
| 2026-05-06 09:05 | 50.13800 | 14.18299 | 3426 ft | 215 kts | 301° |
| 2026-05-06 09:05 | 50.14735 | 14.16320 | 3673 ft | 238 kts | 303° |
| 2026-05-06 09:05 | 50.15761 | 14.14172 | 4155 ft | 252 kts | 303° |
| 2026-05-06 09:06 | 50.16817 | 14.11962 | 4886 ft | 255 kts | 301° |
| 2026-05-06 09:06 | 50.17519 | 14.09451 | 5616 ft | 253 kts | 278° |
| 2026-05-06 09:06 | 50.17471 | 14.06727 | 6338 ft | 253 kts | 253° |
| 2026-05-06 09:06 | 50.16661 | 14.04297 | 6997 ft | 257 kts | 229° |
| 2026-05-06 09:07 | 50.15212 | 14.02644 | 7652 ft | 264 kts | 204° |
| 2026-05-06 09:07 | 50.13383 | 14.02172 | 8370 ft | 274 kts | 179° |
| 2026-05-06 09:07 | 50.11546 | 14.03089 | 9057 ft | 286 kts | 152° |
| 2026-05-06 09:07 | 50.09902 | 14.04896 | 9771 ft | 291 kts | 148° |
| 2026-05-06 09:08 | 50.08242 | 14.06802 | 10144 ft | 306 kts | 148° |
| 2026-05-06 09:08 | 50.06464 | 14.08852 | 10273 ft | 329 kts | 147° |
| 2026-05-06 09:08 | 50.04608 | 14.10991 | 10599 ft | 342 kts | 147° |
| 2026-05-06 09:08 | 50.02683 | 14.13206 | 11193 ft | 346 kts | 147° |
| 2026-05-06 09:09 | 50.00741 | 14.15432 | 11831 ft | 348 kts | 147° |
| 2026-05-06 09:09 | 49.98790 | 14.17665 | 12508 ft | 349 kts | 147° |
| 2026-05-06 09:09 | 49.96823 | 14.19910 | 13155 ft | 351 kts | 147° |
| 2026-05-06 09:09 | 49.94844 | 14.22160 | 13753 ft | 354 kts | 147° |
| 2026-05-06 09:10 | 49.92847 | 14.24423 | 14279 ft | 357 kts | 148° |
| 2026-05-06 09:10 | 49.90830 | 14.26705 | 14814 ft | 360 kts | 148° |
| 2026-05-06 09:10 | 49.88798 | 14.29003 | 15335 ft | 363 kts | 148° |
| 2026-05-06 09:10 | 49.86746 | 14.31321 | 15848 ft | 367 kts | 148° |
| 2026-05-06 09:11 | 49.84677 | 14.33656 | 16358 ft | 370 kts | 148° |
| 2026-05-06 09:11 | 49.82585 | 14.36016 | 16862 ft | 373 kts | 148° |
| 2026-05-06 09:11 | 49.80478 | 14.38389 | 17367 ft | 376 kts | 149° |
| 2026-05-06 09:11 | 49.78352 | 14.40783 | 17883 ft | 380 kts | 149° |
| 2026-05-06 09:12 | 49.76207 | 14.43199 | 18341 ft | 383 kts | 149° |
| 2026-05-06 09:12 | 49.74045 | 14.45629 | 18763 ft | 386 kts | 148° |
| 2026-05-06 09:12 | 49.71867 | 14.48075 | 19231 ft | 388 kts | 148° |
| 2026-05-06 09:12 | 49.69676 | 14.50527 | 19699 ft | 390 kts | 149° |
| 2026-05-06 09:13 | 49.67467 | 14.52992 | 20157 ft | 393 kts | 149° |
| 2026-05-06 09:13 | 49.65248 | 14.55465 | 20576 ft | 396 kts | 148° |
| 2026-05-06 09:13 | 49.63002 | 14.57966 | 21017 ft | 399 kts | 149° |
| 2026-05-06 09:13 | 49.60776 | 14.60445 | 21445 ft | 402 kts | 149° |
| 2026-05-06 09:14 | 49.58505 | 14.62979 | 21856 ft | 404 kts | 149° |
| 2026-05-06 09:14 | 49.56222 | 14.65527 | 22271 ft | 407 kts | 149° |
| 2026-05-06 09:14 | 49.53920 | 14.68091 | 22676 ft | 409 kts | 149° |
| 2026-05-06 09:14 | 49.51603 | 14.70661 | 23068 ft | 412 kts | 149° |
| 2026-05-06 09:15 | 49.49268 | 14.73247 | 23456 ft | 415 kts | 149° |
| 2026-05-06 09:15 | 49.46925 | 14.75847 | 23783 ft | 417 kts | 150° |
| 2026-05-06 09:15 | 49.44568 | 14.78458 | 24121 ft | 418 kts | 150° |
| 2026-05-06 09:15 | 49.42205 | 14.81070 | 24454 ft | 419 kts | 150° |
| 2026-05-06 09:16 | 49.39831 | 14.83688 | 24786 ft | 421 kts | 150° |
| 2026-05-06 09:16 | 49.37448 | 14.86312 | 25075 ft | 422 kts | 151° |
| 2026-05-06 09:16 | 49.35055 | 14.88946 | 25384 ft | 424 kts | 151° |
| 2026-05-06 09:16 | 49.32658 | 14.91585 | 25692 ft | 425 kts | 151° |
| 2026-05-06 09:17 | 49.30251 | 14.94231 | 26005 ft | 427 kts | 151° |
| 2026-05-06 09:17 | 49.27835 | 14.96886 | 26303 ft | 428 kts | 151° |
| 2026-05-06 09:17 | 49.25414 | 14.99541 | 26604 ft | 429 kts | 151° |
| 2026-05-06 09:17 | 49.22981 | 15.02198 | 26894 ft | 430 kts | 152° |
| 2026-05-06 09:18 | 49.20540 | 15.04862 | 27170 ft | 431 kts | 151° |
| 2026-05-06 09:18 | 49.18095 | 15.07525 | 27481 ft | 432 kts | 151° |
| 2026-05-06 09:18 | 49.15645 | 15.10190 | 27767 ft | 433 kts | 152° |
| 2026-05-06 09:18 | 49.13185 | 15.12861 | 28030 ft | 434 kts | 152° |
| 2026-05-06 09:19 | 49.10748 | 15.15506 | 28287 ft | 436 kts | 152° |
| 2026-05-06 09:19 | 49.08244 | 15.18227 | 28508 ft | 437 kts | 151° |
| 2026-05-06 09:19 | 49.05762 | 15.20926 | 28729 ft | 439 kts | 151° |
| 2026-05-06 09:19 | 49.03302 | 15.23596 | 28956 ft | 441 kts | 151° |
| 2026-05-06 09:20 | 49.00801 | 15.26299 | 29187 ft | 442 kts | 151° |
| 2026-05-06 09:20 | 48.98289 | 15.29010 | 29413 ft | 443 kts | 151° |
| 2026-05-06 09:20 | 48.95770 | 15.31726 | 29624 ft | 444 kts | 151° |
| 2026-05-06 09:20 | 48.93242 | 15.34449 | 29810 ft | 446 kts | 151° |
| 2026-05-06 09:21 | 48.90707 | 15.37176 | 30009 ft | 447 kts | 151° |
| 2026-05-06 09:21 | 48.88170 | 15.39906 | 30231 ft | 447 kts | 151° |
| 2026-05-06 09:21 | 48.85644 | 15.42649 | 30460 ft | 446 kts | 150° |
| 2026-05-06 09:21 | 48.83127 | 15.45410 | 30683 ft | 446 kts | 150° |
| 2026-05-06 09:22 | 48.80616 | 15.48181 | 30864 ft | 446 kts | 150° |
| 2026-05-06 09:22 | 48.78917 | 15.50056 | 31002 ft | 447 kts | 150° |
| 2026-05-06 09:22 | 48.76435 | 15.52791 | 31211 ft | 446 kts | 150° |
| 2026-05-06 09:22 | 48.73924 | 15.55542 | 31435 ft | 446 kts | 151° |
| 2026-05-06 09:23 | 48.71296 | 15.57961 | 31656 ft | 438 kts | 160° |
| 2026-05-06 09:23 | 48.68500 | 15.59679 | 31882 ft | 430 kts | 169° |
| 2026-05-06 09:23 | 48.65613 | 15.60694 | 32074 ft | 423 kts | 178° |
| 2026-05-06 09:23 | 48.62703 | 15.61304 | 32279 ft | 422 kts | 178° |
| 2026-05-06 09:24 | 48.59796 | 15.61924 | 32507 ft | 422 kts | 178° |
| 2026-05-06 09:24 | 48.56890 | 15.62556 | 32736 ft | 422 kts | 178° |
| 2026-05-06 09:24 | 48.53990 | 15.63195 | 32970 ft | 421 kts | 178° |
| 2026-05-06 09:24 | 48.51091 | 15.63833 | 33210 ft | 420 kts | 178° |
| 2026-05-06 09:25 | 48.48198 | 15.64463 | 33442 ft | 420 kts | 178° |
| 2026-05-06 09:25 | 48.45312 | 15.65087 | 33665 ft | 419 kts | 178° |
| 2026-05-06 09:25 | 48.42431 | 15.65707 | 33884 ft | 418 kts | 179° |
| 2026-05-06 09:25 | 48.39552 | 15.66325 | 34077 ft | 418 kts | 178° |
| 2026-05-06 09:26 | 48.36675 | 15.66943 | 34213 ft | 418 kts | 178° |
| 2026-05-06 09:26 | 48.33794 | 15.67560 | 34333 ft | 419 kts | 178° |
| 2026-05-06 09:26 | 48.30905 | 15.68181 | 34470 ft | 419 kts | 178° |
| 2026-05-06 09:26 | 48.28019 | 15.68801 | 34630 ft | 419 kts | 178° |
| 2026-05-06 09:27 | 48.25132 | 15.69419 | 34792 ft | 419 kts | 178° |
| 2026-05-06 09:27 | 48.19369 | 15.70656 | 34843 ft | 418 kts | 178° |
| 2026-05-06 09:28 | 48.13604 | 15.71890 | 34843 ft | 418 kts | 178° |
| 2026-05-06 09:28 | 48.07839 | 15.73119 | 34843 ft | 418 kts | 178° |
| 2026-05-06 09:29 | 48.02077 | 15.74336 | 34843 ft | 418 kts | 178° |
| 2026-05-06 09:29 | 47.96316 | 15.75564 | 34844 ft | 418 kts | 178° |
| 2026-05-06 09:30 | 47.90557 | 15.76784 | 34845 ft | 418 kts | 178° |
| 2026-05-06 09:30 | 47.84793 | 15.77996 | 34845 ft | 418 kts | 178° |
| 2026-05-06 09:31 | 47.79027 | 15.79205 | 34824 ft | 418 kts | 178° |
| 2026-05-06 09:31 | 47.73245 | 15.80420 | 34830 ft | 421 kts | 178° |
| 2026-05-06 09:32 | 47.67441 | 15.81636 | 34833 ft | 421 kts | 178° |
| 2026-05-06 09:32 | 47.61632 | 15.82853 | 34843 ft | 422 kts | 178° |
| 2026-05-06 09:33 | 47.55811 | 15.84065 | 34847 ft | 422 kts | 178° |
| 2026-05-06 09:33 | 47.50030 | 15.85272 | 34841 ft | 422 kts | 178° |
| 2026-05-06 09:34 | 47.44203 | 15.86495 | 34849 ft | 423 kts | 178° |
| 2026-05-06 09:34 | 47.38378 | 15.87702 | 34856 ft | 423 kts | 178° |
| 2026-05-06 09:35 | 47.32545 | 15.88899 | 34865 ft | 423 kts | 178° |
| 2026-05-06 09:35 | 47.26705 | 15.90105 | 34859 ft | 424 kts | 178° |
| 2026-05-06 09:36 | 47.20858 | 15.91297 | 34844 ft | 425 kts | 178° |
| 2026-05-06 09:36 | 47.14998 | 15.92501 | 34852 ft | 426 kts | 178° |
| 2026-05-06 09:37 | 47.09128 | 15.93709 | 34855 ft | 426 kts | 178° |
| 2026-05-06 09:37 | 47.03240 | 15.94915 | 34854 ft | 427 kts | 178° |
| 2026-05-06 09:38 | 46.97345 | 15.96117 | 34870 ft | 428 kts | 178° |
| 2026-05-06 09:38 | 46.91444 | 15.97317 | 34877 ft | 428 kts | 178° |
| 2026-05-06 09:39 | 46.85538 | 15.98519 | 34865 ft | 429 kts | 178° |
| 2026-05-06 09:39 | 46.79697 | 16.00582 | 34885 ft | 440 kts | 162° |
| 2026-05-06 09:40 | 46.74314 | 16.05042 | 34895 ft | 447 kts | 154° |
| 2026-05-06 09:40 | 46.66359 | 16.12184 | 34903 ft | 448 kts | 154° |
| 2026-05-06 09:41 | 46.61037 | 16.16913 | 34901 ft | 449 kts | 154° |
| 2026-05-06 09:41 | 46.55744 | 16.21626 | 34910 ft | 449 kts | 154° |
| 2026-05-06 09:42 | 46.50407 | 16.26369 | 34919 ft | 450 kts | 154° |
| 2026-05-06 09:42 | 46.45070 | 16.31107 | 34914 ft | 450 kts | 154° |
| 2026-05-06 09:43 | 46.39730 | 16.35833 | 34913 ft | 450 kts | 154° |
| 2026-05-06 09:43 | 46.34380 | 16.40559 | 34943 ft | 451 kts | 154° |
| 2026-05-06 09:44 | 46.29020 | 16.45271 | 34942 ft | 451 kts | 154° |
| 2026-05-06 09:44 | 46.23658 | 16.49973 | 34950 ft | 451 kts | 154° |
| 2026-05-06 09:45 | 46.18297 | 16.54671 | 34951 ft | 451 kts | 154° |
| 2026-05-06 09:45 | 46.12934 | 16.59365 | 34953 ft | 452 kts | 154° |